createdAt,value
2022-08-20T00:02:26.254Z,999.90
2022-08-20T00:04:53.906Z,966.40
2022-08-20T00:07:21.473Z,999.90
2022-08-20T00:09:49.065Z,773.77
2022-08-20T00:12:18.183Z,820.83
2022-08-20T00:14:47.247Z,967.00
2022-08-20T00:17:14.877Z,285.03
2022-08-20T00:19:42.486Z,783.77
2022-08-20T00:22:10.051Z,972.23
2022-08-20T00:24:37.707Z,997.60
2022-08-20T00:27:05.388Z,999.90
2022-08-20T00:29:33.096Z,960.37
2022-08-20T00:32:02.082Z,458.10
2022-08-20T00:34:30.149Z,966.23
2022-08-20T00:36:57.907Z,963.20
2022-08-20T00:39:25.481Z,925.20
2022-08-20T00:41:53.084Z,974.60
2022-08-20T00:44:22.833Z,964.00
2022-08-20T00:46:51.101Z,277.30
2022-08-20T00:49:24.635Z,973.23
2022-08-20T00:51:57.501Z,465.67
2022-08-20T00:54:30.104Z,999.90
2022-08-20T00:56:59.496Z,999.90
2022-08-20T00:59:30.048Z,999.90
2022-08-20T01:01:58.605Z,999.90
2022-08-20T01:04:28.619Z,999.90
2022-08-20T01:06:56.787Z,640.77
2022-08-20T01:09:50.110Z,117.07
2022-08-20T01:12:13.858Z,92.70
2022-08-20T01:14:46.410Z,61.30
2022-08-20T01:17:22.207Z,71.10
2022-08-20T01:19:54.295Z,131.73
2022-08-20T01:22:43.150Z,117.87
2022-08-20T01:25:26.752Z,83.67
2022-08-20T01:27:57.631Z,77.53
2022-08-20T01:30:27.927Z,68.87
2022-08-20T01:32:56.119Z,999.90
2022-08-20T01:35:25.963Z,973.87
2022-08-20T01:37:54.210Z,969.77
2022-08-20T01:40:44.808Z,976.50
2022-08-20T01:43:13.896Z,968.40
2022-08-20T01:45:41.583Z,979.73
2022-08-20T01:48:09.577Z,972.23
2022-08-20T01:50:41.741Z,999.90
2022-08-20T01:53:18.251Z,961.17
2022-08-20T01:55:45.977Z,999.90
2022-08-20T01:58:15.039Z,998.33
2022-08-20T02:00:43.031Z,999.90
2022-08-20T02:03:10.679Z,999.90
2022-08-20T02:05:38.345Z,999.90
2022-08-20T02:08:06.632Z,999.90
2022-08-20T02:10:35.865Z,999.90
2022-08-20T02:13:05.164Z,999.90
2022-08-20T02:15:37.155Z,999.90
2022-08-20T02:18:10.194Z,952.10
2022-08-20T02:20:38.687Z,965.43
2022-08-20T02:23:07.551Z,973.17
2022-08-20T02:25:37.146Z,965.30
2022-08-20T02:28:07.554Z,953.23
2022-08-20T02:30:39.443Z,962.87
2022-08-20T02:33:10.224Z,978.73
2022-08-20T02:35:39.200Z,992.43
2022-08-20T02:38:06.859Z,968.93
2022-08-20T02:40:35.752Z,992.63
2022-08-20T02:43:04.287Z,996.57
2022-08-20T02:45:37.153Z,987.17
2022-08-20T02:48:06.634Z,991.77
2022-08-20T02:50:34.354Z,996.57
2022-08-20T02:53:01.959Z,997.93
2022-08-20T02:55:29.563Z,999.90
2022-08-20T02:57:59.078Z,999.90
2022-08-20T03:00:28.311Z,999.90
2022-08-20T03:02:56.422Z,999.90
2022-08-20T03:05:25.415Z,999.90
2022-08-20T03:07:56.447Z,994.30
2022-08-20T03:10:25.692Z,596.70
2022-08-20T03:12:53.577Z,107.47
2022-08-20T03:15:21.621Z,24.57
2022-08-20T03:17:49.400Z,263.33
2022-08-20T03:20:17.411Z,187.10
2022-08-20T03:22:51.420Z,191.80
2022-08-20T03:25:19.409Z,182.50
2022-08-20T03:27:54.386Z,245.00
2022-08-20T03:30:23.659Z,121.07
2022-08-20T03:32:51.704Z,222.00
2022-08-20T03:35:21.464Z,218.00
2022-08-20T03:37:50.971Z,208.80
2022-08-20T03:40:21.748Z,207.47
2022-08-20T03:42:49.331Z,133.40
2022-08-20T03:45:20.338Z,148.63
2022-08-20T03:47:48.613Z,241.77
2022-08-20T03:50:22.660Z,999.90
2022-08-20T03:52:51.822Z,999.90
2022-08-20T03:55:19.590Z,999.90
2022-08-20T03:57:51.886Z,967.73
2022-08-20T04:00:22.015Z,967.97
2022-08-20T04:02:49.652Z,963.90
2022-08-20T04:05:17.584Z,924.40
2022-08-20T04:07:45.343Z,760.23
2022-08-20T04:10:14.458Z,787.40
2022-08-20T04:12:53.017Z,30.33
2022-08-20T04:15:22.187Z,53.53
2022-08-20T04:17:51.103Z,55.17
2022-08-20T04:20:22.754Z,55.50
2022-08-20T04:22:58.598Z,18.43
2022-08-20T04:25:29.613Z,104.47
2022-08-20T04:27:58.300Z,247.07
2022-08-20T04:30:27.000Z,289.67
2022-08-20T04:32:56.062Z,115.53
2022-08-20T04:35:25.143Z,712.27
2022-08-20T04:37:59.607Z,125.37
2022-08-20T04:40:47.239Z,122.67
2022-08-20T04:43:15.364Z,999.90
2022-08-20T04:45:43.756Z,999.90
2022-08-20T04:48:14.982Z,966.10
2022-08-20T04:50:45.141Z,919.23
2022-08-20T04:53:14.904Z,723.87
2022-08-20T04:55:44.518Z,478.87
2022-08-20T04:58:13.819Z,432.27
2022-08-20T05:00:41.661Z,584.47
2022-08-20T05:03:09.245Z,999.90
2022-08-20T05:05:36.963Z,999.90
2022-08-20T05:08:04.994Z,999.90
2022-08-20T05:10:32.711Z,999.90
2022-08-20T05:13:01.671Z,999.90
2022-08-20T05:15:29.286Z,999.90
2022-08-20T05:18:00.470Z,999.90
2022-08-20T05:20:29.680Z,999.90
2022-08-20T05:22:57.267Z,999.90
2022-08-20T05:25:24.989Z,999.90
2022-08-20T05:27:57.473Z,999.90
2022-08-20T05:30:26.655Z,999.90
2022-08-20T05:32:54.544Z,999.90
2022-08-20T05:35:22.120Z,999.90
2022-08-20T05:37:49.760Z,999.90
2022-08-20T05:40:17.400Z,999.90
2022-08-20T05:42:45.304Z,999.90
2022-08-20T05:45:12.934Z,999.90
2022-08-20T05:47:42.943Z,999.90
2022-08-20T05:50:20.750Z,999.90
2022-08-20T05:52:51.405Z,956.07
2022-08-20T05:55:19.151Z,871.83
2022-08-20T05:57:46.760Z,620.40
2022-08-20T06:00:15.295Z,724.93
2022-08-20T06:03:01.750Z,780.03
2022-08-20T06:05:29.360Z,484.27
2022-08-20T06:08:07.280Z,515.90
2022-08-20T06:10:35.927Z,605.47
2022-08-20T06:13:03.887Z,999.90
2022-08-20T06:15:32.345Z,999.90
2022-08-20T06:18:01.669Z,999.90
2022-08-20T06:20:29.805Z,999.90
2022-08-20T06:22:57.595Z,999.90
2022-08-20T06:25:25.192Z,999.90
2022-08-20T06:27:52.869Z,999.90
2022-08-20T06:30:20.553Z,999.90
2022-08-20T06:32:49.186Z,999.90
2022-08-20T06:35:20.072Z,999.90
2022-08-20T06:37:48.478Z,999.90
2022-08-20T06:40:19.482Z,999.90
2022-08-20T06:42:48.922Z,999.90
2022-08-20T06:45:18.608Z,999.90
2022-08-20T06:47:47.662Z,999.90
2022-08-20T06:50:19.542Z,999.90
2022-08-20T06:52:52.986Z,999.90
2022-08-20T06:55:21.936Z,999.90
2022-08-20T06:57:57.364Z,999.90
2022-08-20T07:00:24.965Z,999.90
2022-08-20T07:02:52.673Z,999.90
2022-08-20T07:05:21.827Z,118.13
2022-08-20T07:07:50.987Z,112.00
2022-08-20T07:10:19.959Z,724.97
2022-08-20T07:12:50.927Z,783.83
2022-08-20T07:15:19.903Z,862.17
2022-08-20T07:17:50.338Z,132.57
2022-08-20T07:20:18.163Z,472.00
2022-08-20T07:22:47.083Z,237.37
2022-08-20T07:25:16.968Z,961.83
2022-08-20T07:27:44.736Z,130.07
2022-08-20T07:30:32.832Z,991.93
2022-08-20T07:33:20.455Z,582.83
2022-08-20T07:35:49.060Z,997.27
2022-08-20T07:38:23.897Z,999.90
2022-08-20T07:40:52.442Z,971.37
2022-08-20T07:43:21.442Z,999.90
2022-08-20T07:45:52.140Z,959.40
2022-08-20T07:48:27.932Z,999.90
2022-08-20T07:50:59.943Z,999.90
2022-08-20T07:53:33.543Z,999.90
2022-08-20T07:56:05.463Z,642.23
2022-08-20T07:58:35.263Z,429.47
2022-08-20T08:01:02.903Z,999.90
2022-08-20T08:03:39.415Z,999.90
2022-08-20T08:06:28.478Z,999.90
2022-08-20T08:08:59.395Z,740.03
2022-08-20T08:11:27.062Z,724.87
2022-08-20T08:13:54.747Z,275.73
2022-08-20T08:16:22.630Z,999.90
2022-08-20T08:18:53.089Z,999.90
2022-08-20T08:21:23.400Z,999.90
2022-08-20T08:23:51.111Z,378.97
2022-08-20T08:26:22.323Z,999.90
2022-08-20T08:28:50.252Z,763.73
2022-08-20T08:31:17.944Z,999.90
2022-08-20T08:33:45.607Z,776.40
2022-08-20T08:36:15.370Z,999.90
2022-08-20T08:38:44.635Z,999.90
2022-08-20T08:41:17.520Z,999.90
2022-08-20T08:43:48.443Z,769.83
2022-08-20T08:46:18.955Z,752.67
2022-08-20T08:48:47.715Z,895.27
2022-08-20T08:51:18.111Z,874.90
2022-08-20T08:53:49.051Z,830.50
2022-08-20T08:56:16.660Z,849.70
2022-08-20T08:58:44.896Z,909.20
2022-08-20T09:01:54.153Z,856.93
2022-08-20T09:04:05.885Z,897.77
2022-08-20T09:06:33.979Z,805.07
2022-08-20T09:09:03.386Z,922.33
2022-08-20T09:11:31.493Z,776.73
2022-08-20T09:13:59.201Z,901.03
2022-08-20T09:16:30.056Z,806.73
2022-08-20T09:19:16.539Z,829.97
2022-08-20T09:21:44.395Z,848.73
2022-08-20T09:24:11.983Z,924.10
2022-08-20T09:26:39.656Z,908.50
2022-08-20T09:29:07.280Z,931.30
2022-08-20T09:31:36.468Z,812.90
2022-08-20T09:34:06.187Z,833.50
2022-08-20T09:36:35.167Z,811.67
2022-08-20T09:39:03.527Z,789.10
2022-08-20T09:41:32.930Z,829.37
2022-08-20T09:44:01.499Z,865.20
2022-08-20T09:46:29.093Z,822.97
2022-08-20T09:48:58.049Z,922.63
2022-08-20T09:51:25.712Z,945.67
2022-08-20T09:53:53.357Z,954.07
2022-08-20T09:56:20.982Z,952.13
2022-08-20T09:58:50.624Z,947.53
2022-08-20T10:01:19.925Z,956.20
2022-08-20T10:03:49.166Z,925.37
2022-08-20T10:06:20.665Z,928.00
2022-08-20T10:08:49.033Z,937.53
2022-08-20T10:11:18.012Z,983.87
2022-08-20T10:13:45.829Z,933.30
2022-08-20T10:16:14.203Z,717.27
2022-08-20T10:18:41.806Z,474.93
2022-08-20T10:21:11.081Z,261.70
2022-08-20T10:23:40.072Z,742.27
2022-08-20T10:26:08.424Z,272.70
2022-08-20T10:28:36.047Z,937.77
2022-08-20T10:31:04.797Z,999.90
2022-08-20T10:33:32.423Z,999.90
2022-08-20T10:36:07.186Z,999.90
2022-08-20T10:38:34.803Z,244.93
2022-08-20T10:41:03.789Z,999.90
2022-08-20T10:43:31.491Z,999.90
2022-08-20T10:45:59.300Z,999.90
2022-08-20T10:48:27.375Z,952.70
2022-08-20T10:50:55.571Z,999.90
2022-08-20T10:53:23.196Z,999.90
2022-08-20T10:55:50.826Z,999.90
2022-08-20T10:58:20.195Z,954.17
2022-08-20T11:00:51.523Z,296.90
2022-08-20T11:03:19.227Z,999.90
2022-08-20T11:05:47.176Z,999.90
2022-08-20T11:08:14.909Z,999.90
2022-08-20T11:11:01.022Z,999.90
2022-08-20T11:13:30.000Z,959.40
2022-08-20T11:15:57.683Z,960.60
2022-08-20T11:18:25.382Z,223.93
2022-08-20T11:20:53.032Z,229.10
2022-08-20T11:23:20.898Z,222.17
2022-08-20T11:25:49.498Z,152.87
2022-08-20T11:28:17.312Z,282.13
2022-08-20T11:31:01.240Z,146.23
2022-08-20T11:33:28.887Z,225.97
2022-08-20T11:35:56.499Z,193.33
2022-08-20T11:38:24.517Z,203.37
2022-08-20T11:40:52.119Z,220.17
2022-08-20T11:43:19.742Z,479.53
2022-08-20T11:45:52.677Z,999.90
2022-08-20T11:48:22.391Z,999.90
2022-08-20T11:50:50.801Z,999.90
2022-08-20T11:53:18.415Z,999.90
2022-08-20T11:55:48.541Z,999.90
2022-08-20T11:58:16.543Z,999.90
2022-08-20T12:00:44.120Z,999.90
2022-08-20T12:03:12.505Z,999.90
2022-08-20T12:05:44.388Z,999.90
2022-08-20T12:08:25.301Z,999.90
2022-08-20T12:10:56.429Z,999.90
2022-08-20T12:13:30.466Z,999.90
2022-08-20T12:16:09.236Z,999.90
2022-08-20T12:18:37.091Z,999.90
2022-08-20T12:21:04.875Z,999.90
2022-08-20T12:23:32.475Z,999.90
2022-08-20T12:26:02.712Z,999.90
2022-08-20T12:28:30.789Z,999.90
2022-08-20T12:30:58.664Z,999.90
2022-08-20T12:33:27.722Z,999.90
2022-08-20T12:35:55.325Z,999.90
2022-08-20T12:38:22.968Z,999.90
2022-08-20T12:40:50.531Z,999.90
2022-08-20T12:43:21.658Z,999.90
2022-08-20T12:45:52.062Z,999.90
2022-08-20T12:48:20.770Z,999.90
2022-08-20T12:50:50.578Z,999.90
2022-08-20T12:53:18.505Z,999.90
2022-08-20T12:55:46.290Z,999.90
2022-08-20T12:58:13.907Z,999.90
2022-08-20T13:00:50.298Z,999.90
2022-08-20T13:03:19.555Z,999.90
2022-08-20T13:05:47.352Z,999.90
2022-08-20T13:08:17.821Z,999.90
2022-08-20T13:10:46.314Z,999.90
2022-08-20T13:13:15.198Z,999.90
2022-08-20T13:15:45.227Z,999.90
2022-08-20T13:18:12.827Z,999.90
2022-08-20T13:20:40.468Z,999.90
2022-08-20T13:23:08.147Z,999.90
2022-08-20T13:25:37.119Z,999.90
2022-08-20T13:28:05.783Z,999.90
2022-08-20T13:30:34.046Z,999.90
2022-08-20T13:33:01.834Z,999.90
2022-08-20T13:35:29.548Z,999.90
2022-08-20T13:37:57.153Z,999.90
2022-08-20T13:40:25.794Z,999.90
2022-08-20T13:42:54.801Z,999.90
2022-08-20T13:45:22.407Z,999.90
2022-08-20T13:47:53.646Z,999.90
2022-08-20T13:50:22.834Z,999.90
2022-08-20T13:52:50.478Z,999.90
2022-08-20T13:55:20.796Z,999.90
2022-08-20T13:57:49.484Z,999.90
2022-08-20T14:00:21.836Z,999.90
2022-08-20T14:02:59.251Z,999.90
2022-08-20T14:05:26.903Z,999.90
2022-08-20T14:07:54.586Z,999.90
2022-08-20T14:10:26.356Z,999.90
2022-08-20T14:12:54.040Z,999.90
2022-08-20T14:15:23.033Z,999.90
2022-08-20T14:17:52.539Z,999.90
2022-08-20T14:20:23.891Z,999.90
2022-08-20T14:22:52.434Z,999.90
2022-08-20T14:25:21.824Z,999.90
2022-08-20T14:27:50.574Z,999.90
2022-08-20T14:30:20.994Z,999.90
2022-08-20T14:32:50.142Z,999.90
2022-08-20T14:35:18.052Z,999.90
2022-08-20T14:37:49.047Z,999.90
2022-08-20T14:40:18.743Z,999.90
2022-08-20T14:42:51.694Z,999.90
2022-08-20T14:45:22.843Z,999.90
2022-08-20T14:47:54.248Z,999.90
2022-08-20T14:50:25.000Z,999.90
2022-08-20T14:52:52.635Z,999.90
2022-08-20T14:55:22.411Z,999.90
2022-08-20T14:57:50.728Z,999.90
2022-08-20T15:00:20.313Z,999.90
2022-08-20T15:02:48.381Z,999.90
2022-08-20T15:05:17.918Z,999.90
2022-08-20T15:07:48.122Z,999.90
2022-08-20T15:10:20.064Z,999.90
2022-08-20T15:12:47.935Z,999.90
2022-08-20T15:15:16.737Z,999.90
2022-08-20T15:17:46.290Z,999.90
2022-08-20T15:20:19.932Z,999.90
2022-08-20T15:22:50.822Z,999.90
2022-08-20T15:25:20.143Z,999.90
2022-08-20T15:27:48.036Z,999.90
2022-08-20T15:30:19.831Z,999.90
2022-08-20T15:32:51.411Z,999.90
2022-08-20T15:35:22.471Z,999.90
2022-08-20T15:37:51.813Z,999.90
2022-08-20T15:40:27.869Z,999.90
2022-08-20T15:42:56.415Z,999.90
2022-08-20T15:45:24.111Z,999.90
2022-08-20T15:47:54.889Z,999.90
2022-08-20T15:50:34.823Z,999.90
2022-08-20T15:53:07.281Z,999.90
2022-08-20T15:55:37.265Z,999.90
2022-08-20T15:58:11.245Z,999.90
2022-08-20T16:00:43.780Z,999.90
2022-08-20T16:03:29.101Z,999.90
2022-08-20T16:05:59.675Z,999.90
2022-08-20T16:08:46.464Z,999.90
2022-08-20T16:11:20.763Z,999.90
2022-08-20T16:13:50.931Z,999.90
2022-08-20T16:16:24.900Z,999.90
2022-08-20T16:18:53.834Z,999.90
2022-08-20T16:21:28.001Z,999.90
2022-08-20T16:23:57.571Z,999.90
2022-08-20T16:26:41.044Z,999.90
2022-08-20T16:29:15.076Z,942.10
2022-08-20T16:31:47.440Z,914.70
2022-08-20T16:34:34.457Z,941.50
2022-08-20T16:37:06.816Z,900.73
2022-08-20T16:39:40.254Z,945.80
2022-08-20T16:42:10.349Z,949.10
2022-08-20T16:44:41.724Z,897.27
2022-08-20T16:47:16.759Z,904.80
2022-08-20T16:49:50.669Z,931.00
2022-08-20T16:52:18.372Z,909.23
2022-08-20T16:54:47.528Z,916.20
2022-08-20T16:57:17.493Z,911.07
2022-08-20T16:59:57.099Z,927.73
2022-08-20T17:02:27.249Z,934.97
2022-08-20T17:05:00.022Z,907.20
2022-08-20T17:07:33.274Z,910.87
2022-08-20T17:10:13.318Z,896.37
2022-08-20T17:12:41.134Z,931.90
2022-08-20T17:15:09.584Z,942.00
2022-08-20T17:17:38.249Z,966.97
2022-08-20T17:20:19.872Z,234.73
2022-08-20T17:22:52.110Z,134.53
2022-08-20T17:25:23.384Z,989.63
2022-08-20T17:27:51.253Z,812.33
2022-08-20T17:30:24.703Z,810.37
2022-08-20T17:32:58.891Z,999.90
2022-08-20T17:35:33.800Z,999.87
2022-08-20T17:38:03.023Z,810.30
2022-08-20T17:40:35.905Z,204.87
2022-08-20T17:43:06.272Z,820.20
2022-08-20T17:45:37.492Z,227.97
2022-08-20T17:48:08.564Z,221.03
2022-08-20T17:50:38.338Z,267.80
2022-08-20T17:53:14.113Z,239.77
2022-08-20T17:55:44.797Z,999.90
2022-08-20T17:58:14.656Z,833.90
2022-08-20T18:00:43.350Z,999.90
2022-08-20T18:03:18.301Z,265.57
2022-08-20T18:05:49.459Z,303.83
2022-08-20T18:08:21.688Z,271.33
2022-08-20T18:10:58.558Z,570.73
2022-08-20T18:13:36.665Z,999.90
2022-08-20T18:16:16.845Z,999.90
2022-08-20T18:18:56.731Z,137.33
2022-08-20T18:21:58.627Z,999.90
2022-08-20T18:24:29.885Z,520.73
2022-08-20T18:27:02.537Z,319.27
2022-08-20T18:29:32.741Z,520.53
2022-08-20T18:32:02.417Z,999.90
2022-08-20T18:34:39.932Z,999.90
2022-08-20T18:37:22.722Z,999.90
2022-08-20T18:39:51.228Z,999.90
2022-08-20T18:42:29.300Z,999.90
2022-08-20T18:44:57.570Z,999.90
2022-08-20T18:47:27.877Z,999.90
2022-08-20T18:50:16.171Z,999.90
2022-08-20T18:52:47.284Z,999.90
2022-08-20T18:55:29.471Z,999.90
2022-08-20T18:58:00.513Z,999.90
2022-08-20T19:00:34.621Z,999.90
2022-08-20T19:03:11.492Z,999.90
2022-08-20T19:05:50.647Z,999.90
2022-08-20T19:08:23.894Z,999.90
2022-08-20T19:10:57.890Z,999.90
2022-08-20T19:13:54.735Z,999.90
2022-08-20T19:16:27.098Z,999.90
2022-08-20T19:18:56.263Z,999.90
2022-08-20T19:21:26.336Z,999.90
2022-08-20T19:23:56.916Z,999.90
2022-08-20T19:26:28.255Z,999.90
2022-08-20T19:29:00.591Z,999.90
2022-08-20T19:31:30.274Z,999.90
2022-08-20T19:34:03.916Z,999.90
2022-08-20T19:36:47.315Z,999.90
2022-08-20T19:39:16.810Z,999.90
2022-08-20T19:41:48.525Z,999.90
2022-08-20T19:44:31.466Z,999.90
2022-08-20T19:46:59.993Z,999.90
2022-08-20T19:49:30.969Z,999.90
2022-08-20T19:52:15.114Z,999.90
2022-08-20T19:54:49.196Z,999.90
2022-08-20T19:57:17.989Z,999.90
2022-08-20T19:59:55.590Z,999.90
2022-08-20T20:02:25.023Z,999.90
2022-08-20T20:04:55.504Z,999.90
2022-08-20T20:07:27.914Z,999.90
2022-08-20T20:09:58.392Z,999.90
2022-08-20T20:12:26.119Z,999.90
2022-08-20T20:14:55.741Z,999.90
2022-08-20T20:17:25.427Z,999.90
2022-08-20T20:19:58.985Z,958.23
2022-08-20T20:22:29.131Z,999.90
2022-08-20T20:25:05.802Z,999.90
2022-08-20T20:27:36.423Z,999.90
2022-08-20T20:30:08.003Z,988.30
2022-08-20T20:32:35.700Z,999.90
2022-08-20T20:35:05.755Z,999.90
2022-08-20T20:37:45.350Z,999.90
2022-08-20T20:40:23.855Z,999.90
2022-08-20T20:42:59.054Z,721.07
2022-08-20T20:45:33.435Z,959.60
2022-08-20T20:48:01.955Z,992.83
2022-08-20T20:50:32.530Z,999.90
2022-08-20T20:53:00.231Z,994.03
2022-08-20T20:55:29.776Z,995.83
2022-08-20T20:57:57.923Z,995.93
2022-08-20T21:00:28.850Z,999.90
2022-08-20T21:02:58.452Z,994.40
2022-08-20T21:05:30.580Z,999.90
2022-08-20T21:08:00.746Z,992.67
2022-08-20T21:10:36.399Z,974.63
2022-08-20T21:13:04.227Z,998.17
2022-08-20T21:15:32.609Z,999.90
2022-08-20T21:18:02.927Z,999.90
2022-08-20T21:20:30.821Z,999.90
2022-08-20T21:22:58.939Z,999.90
2022-08-20T21:25:27.599Z,999.90
2022-08-20T21:27:55.779Z,999.90
2022-08-20T21:30:24.659Z,999.90
2022-08-20T21:32:52.745Z,999.90
2022-08-20T21:35:22.065Z,999.90
2022-08-20T21:37:49.965Z,999.90
2022-08-20T21:40:18.228Z,999.90
2022-08-20T21:42:49.531Z,999.90
2022-08-20T21:45:19.705Z,999.90
2022-08-20T21:47:48.839Z,999.90
2022-08-20T21:50:18.965Z,999.90
2022-08-20T21:52:55.498Z,992.53
2022-08-20T21:55:28.545Z,999.90
2022-08-20T21:57:56.262Z,808.27
2022-08-20T22:00:48.279Z,999.90
2022-08-20T22:03:16.912Z,999.90
2022-08-20T22:05:48.149Z,999.90
2022-08-20T22:08:17.623Z,999.90
2022-08-20T22:10:45.615Z,999.90
2022-08-20T22:13:14.015Z,999.90
2022-08-20T22:15:41.604Z,999.90
2022-08-20T22:18:09.361Z,999.90
2022-08-20T22:20:37.062Z,129.37
2022-08-20T22:23:06.280Z,999.90
2022-08-20T22:25:35.672Z,999.90
2022-08-20T22:28:03.295Z,999.90
2022-08-20T22:30:31.352Z,999.90
2022-08-20T22:33:01.806Z,999.90
2022-08-20T22:35:30.072Z,999.90
2022-08-20T22:37:57.845Z,999.90
2022-08-20T22:40:26.583Z,999.90
2022-08-20T22:42:56.816Z,999.90
2022-08-20T22:45:24.575Z,999.90
2022-08-20T22:47:52.167Z,999.90
2022-08-20T22:50:20.606Z,999.90
2022-08-20T22:52:48.207Z,999.90
2022-08-20T22:55:15.847Z,999.90
2022-08-20T22:57:43.440Z,999.90
2022-08-20T23:00:16.765Z,999.90
2022-08-20T23:02:45.602Z,999.90
2022-08-20T23:05:16.011Z,999.90
2022-08-20T23:07:43.742Z,999.90
2022-08-20T23:10:11.366Z,999.90
2022-08-20T23:12:39.234Z,999.90
2022-08-20T23:15:08.258Z,999.90
2022-08-20T23:17:37.968Z,999.90
2022-08-20T23:20:06.560Z,999.90
2022-08-20T23:22:34.362Z,999.90
2022-08-20T23:25:01.995Z,999.90
2022-08-20T23:27:29.897Z,999.90
2022-08-20T23:29:57.459Z,999.90
2022-08-20T23:32:25.900Z,999.90
2022-08-20T23:34:54.863Z,999.90
2022-08-20T23:37:22.554Z,999.90
2022-08-20T23:39:50.145Z,999.90
2022-08-20T23:42:18.364Z,999.90
2022-08-20T23:44:46.283Z,999.90
2022-08-20T23:47:19.534Z,999.90
2022-08-20T23:49:47.292Z,999.90
2022-08-20T23:52:16.236Z,999.90
2022-08-20T23:54:44.009Z,999.90
2022-08-20T23:57:12.076Z,999.90
2022-08-20T23:59:41.464Z,999.90
